Time;durP1;ratioP1;P1;durP2;ratioP2;P2;SDS_P1;SDS_P2;PMS_P1;PMS_P2;Temp;Humidity;BMP_temperature;BMP_pressure;BME280_temperature;BME280_humidity;BME280_pressure;Samples;Min_cycle;Max_cycle;Signal;HPM_P1;HPM_P2
2022/07/09 00:02:06;;;;;;;8.30;4.20;;;;;;;15.48;100.00;99664.56;105151;1271;61278;-76
2022/07/09 00:04:32;;;;;;;8.10;4.10;;;;;;;15.48;100.00;99665.14;105169;1271;61360;-76
2022/07/09 00:06:58;;;;;;;5.50;3.60;;;;;;;15.47;100.00;99663.44;105177;1271;61380;-77
2022/07/09 00:09:24;;;;;;;8.70;5.00;;;;;;;15.46;100.00;99664.77;105142;1271;61363;-75
2022/07/09 00:11:52;;;;;;;5.60;4.40;;;;;;;15.44;100.00;99664.53;105220;1271;61396;-75
2022/07/09 00:14:19;;;;;;;7.50;5.20;;;;;;;15.42;100.00;99665.95;105283;1271;61376;-75
2022/07/09 00:16:45;;;;;;;8.80;5.10;;;;;;;15.40;100.00;99668.56;105671;1271;61477;-75
2022/07/09 00:19:11;;;;;;;7.50;4.50;;;;;;;15.39;100.00;99671.37;105565;1271;61360;-75
2022/07/09 00:21:37;;;;;;;6.10;4.40;;;;;;;15.36;100.00;99667.23;105167;1271;61307;-75
2022/07/09 00:24:03;;;;;;;5.80;5.00;;;;;;;15.36;100.00;99667.63;105201;1271;61259;-76
2022/07/09 00:26:30;;;;;;;5.60;4.20;;;;;;;15.34;100.00;99668.27;105228;1271;61284;-74
2022/07/09 00:28:55;;;;;;;7.20;4.30;;;;;;;15.32;100.00;99665.23;105165;1271;74457;-76
2022/07/09 00:31:22;;;;;;;6.50;4.90;;;;;;;15.29;100.00;99667.41;105160;1271;62095;-76
2022/07/09 00:33:48;;;;;;;5.70;5.10;;;;;;;15.27;100.00;99664.59;105238;1271;61324;-76
2022/07/09 00:36:14;;;;;;;7.00;4.60;;;;;;;15.24;100.00;99666.04;105169;1271;61307;-76
2022/07/09 00:38:40;;;;;;;5.40;4.50;;;;;;;15.21;100.00;99663.60;105031;1271;61303;-75
2022/07/09 00:41:06;;;;;;;7.20;4.70;;;;;;;15.18;100.00;99663.30;104907;1271;63075;-76
2022/07/09 00:43:32;;;;;;;6.70;4.90;;;;;;;15.16;100.00;99664.52;105167;1271;61291;-76
2022/07/09 00:45:58;;;;;;;10.60;5.10;;;;;;;15.12;100.00;99661.05;105188;1271;61333;-76
2022/07/09 00:48:25;;;;;;;8.30;5.00;;;;;;;15.09;100.00;99661.07;105212;1271;61281;-76
2022/07/09 00:50:51;;;;;;;6.50;5.10;;;;;;;15.06;100.00;99657.16;105186;1271;74302;-77
2022/07/09 00:53:24;;;;;;;7.60;5.20;;;;;;;15.05;100.00;99655.85;105120;1271;61176;-76
2022/07/09 00:55:51;;;;;;;7.20;5.50;;;;;;;15.02;100.00;99657.15;105172;1271;61941;-77
2022/07/09 00:58:19;;;;;;;8.40;5.00;;;;;;;15.01;100.00;99656.87;105264;1271;75419;-76
2022/07/09 01:00:45;;;;;;;5.60;4.60;;;;;;;15.00;100.00;99653.36;105393;1271;69258;-76
2022/07/09 01:03:12;;;;;;;8.00;5.20;;;;;;;14.97;100.00;99653.73;105192;1271;61294;-76
2022/07/09 01:05:38;;;;;;;7.10;5.10;;;;;;;14.94;100.00;99652.17;105161;1270;61436;-75
2022/07/09 01:08:06;;;;;;;6.10;4.70;;;;;;;14.91;100.00;99655.08;105201;1271;61397;-76
2022/07/09 01:10:34;;;;;;;9.00;5.70;;;;;;;14.88;100.00;99655.63;105274;1271;75254;-76
2022/07/09 01:13:02;;;;;;;7.80;4.50;;;;;;;14.87;100.00;99648.17;105351;1270;70505;-76
2022/07/09 01:15:29;;;;;;;7.80;4.80;;;;;;;14.85;100.00;99647.07;105266;1271;73263;-78
2022/07/09 01:17:57;;;;;;;8.90;5.40;;;;;;;14.83;100.00;99644.23;105204;1271;61302;-77
2022/07/09 01:20:30;;;;;;;6.20;4.80;;;;;;;14.81;100.00;99645.58;105269;1270;61383;-77
2022/07/09 01:22:58;;;;;;;5.80;4.90;;;;;;;14.81;100.00;99648.14;105216;1271;75464;-77
2022/07/09 01:25:35;;;;;;;8.80;5.00;;;;;;;14.80;100.00;99642.48;105231;1271;69685;-77
2022/07/09 01:28:05;;;;;;;8.10;5.00;;;;;;;14.79;100.00;99639.69;105208;1271;74346;-77
2022/07/09 01:30:33;;;;;;;6.20;4.50;;;;;;;14.78;100.00;99639.63;105267;1271;61294;-77
2022/07/09 01:32:59;;;;;;;8.40;6.00;;;;;;;14.76;100.00;99635.65;105169;1271;62094;-78
2022/07/09 01:35:27;;;;;;;7.90;5.60;;;;;;;14.74;100.00;99634.34;104979;1271;61226;-77
2022/07/09 01:37:55;;;;;;;8.20;5.10;;;;;;;14.73;100.00;99632.78;105192;1271;69650;-77
2022/07/09 01:40:23;;;;;;;9.00;5.20;;;;;;;14.72;100.00;99632.52;105202;1271;74754;-76
2022/07/09 01:42:49;;;;;;;8.70;5.00;;;;;;;14.72;100.00;99633.42;105261;1271;61307;-76
2022/07/09 01:45:16;;;;;;;9.10;5.40;;;;;;;14.72;100.00;99632.36;105222;1271;61294;-76
2022/07/09 01:47:43;;;;;;;11.00;5.50;;;;;;;14.71;100.00;99631.48;105247;1271;74169;-76
2022/07/09 01:50:10;;;;;;;8.50;5.10;;;;;;;14.71;100.00;99631.13;105215;1271;61263;-76
2022/07/09 01:52:36;;;;;;;6.80;4.80;;;;;;;14.71;100.00;99629.01;105196;1271;73337;-76
2022/07/09 01:55:04;;;;;;;8.20;5.30;;;;;;;14.71;100.00;99631.86;105221;1271;61313;-76
2022/07/09 01:57:30;;;;;;;8.90;4.90;;;;;;;14.70;100.00;99626.01;105212;1271;61400;-76
2022/07/09 01:59:56;;;;;;;7.80;5.30;;;;;;;14.69;100.00;99623.05;105141;1271;61351;-75
2022/07/09 02:02:22;;;;;;;11.10;5.40;;;;;;;14.70;100.00;99621.22;105184;1271;61396;-76
2022/07/09 02:04:48;;;;;;;7.70;5.30;;;;;;;14.71;100.00;99620.21;105174;1271;61249;-75
2022/07/09 02:07:14;;;;;;;7.70;5.10;;;;;;;14.71;100.00;99620.05;104955;1271;61432;-75
2022/07/09 02:09:41;;;;;;;9.90;5.90;;;;;;;14.71;100.00;99618.98;105153;1271;61260;-77
2022/07/09 02:12:07;;;;;;;9.60;5.60;;;;;;;14.70;100.00;99620.86;105200;1271;61471;-77
2022/07/09 02:14:33;;;;;;;7.30;5.10;;;;;;;14.69;100.00;99617.68;105192;1269;61204;-76
2022/07/09 02:16:59;;;;;;;7.30;5.40;;;;;;;14.68;100.00;99613.98;105197;1271;61373;-76
2022/07/09 02:19:25;;;;;;;10.80;5.50;;;;;;;14.67;100.00;99605.14;105149;1271;61354;-75
2022/07/09 02:21:51;;;;;;;9.20;6.00;;;;;;;14.67;100.00;99609.48;105243;1271;61733;-76
2022/07/09 02:24:17;;;;;;;11.30;6.10;;;;;;;14.66;100.00;99605.02;105203;1271;70366;-76
2022/07/09 02:26:43;;;;;;;6.20;5.30;;;;;;;14.64;100.00;99606.05;105179;1270;61335;-76
2022/07/09 02:29:09;;;;;;;8.20;6.20;;;;;;;14.63;100.00;99605.84;105193;1271;61399;-76
2022/07/09 02:31:35;;;;;;;11.50;5.70;;;;;;;14.61;100.00;99600.63;104926;1274;61559;-75
2022/07/09 02:34:01;;;;;;;10.90;5.50;;;;;;;14.59;100.00;99599.66;105143;1271;61300;-77
2022/07/09 02:36:27;;;;;;;10.80;5.40;;;;;;;14.58;100.00;99601.57;105184;1269;61342;-76
2022/07/09 02:38:53;;;;;;;8.10;6.60;;;;;;;14.55;100.00;99602.48;105360;1271;61944;-75
2022/07/09 02:41:19;;;;;;;11.70;5.90;;;;;;;14.54;100.00;99602.58;105147;1271;61307;-75
2022/07/09 02:43:45;;;;;;;8.20;5.90;;;;;;;14.54;100.00;99602.91;105233;1270;61377;-75
2022/07/09 02:46:12;;;;;;;7.70;5.40;;;;;;;14.53;100.00;99599.23;104965;1271;69495;-77
2022/07/09 02:48:38;;;;;;;12.50;7.20;;;;;;;14.52;100.00;99602.86;105162;1271;74486;-76
2022/07/09 02:51:05;;;;;;;11.30;6.70;;;;;;;14.49;100.00;99603.73;105127;1271;61351;-76
2022/07/09 02:53:31;;;;;;;8.80;6.10;;;;;;;14.47;100.00;99602.98;104953;1271;61274;-76
2022/07/09 02:55:57;;;;;;;12.00;6.80;;;;;;;14.46;100.00;99600.55;105176;1271;61398;-76
2022/07/09 02:58:23;;;;;;;13.00;6.50;;;;;;;14.46;100.00;99605.08;105178;1271;61474;-76
2022/07/09 03:00:49;;;;;;;9.50;6.20;;;;;;;14.46;100.00;99603.13;105174;1271;61816;-77
2022/07/09 03:03:16;;;;;;;9.70;7.70;;;;;;;14.45;100.00;99603.48;105173;1270;61271;-77
2022/07/09 03:05:42;;;;;;;10.10;6.60;;;;;;;14.45;100.00;99603.89;105262;1271;61352;-76
2022/07/09 03:08:08;;;;;;;9.90;7.10;;;;;;;14.45;100.00;99605.48;105152;1270;61407;-77
2022/07/09 03:10:35;;;;;;;12.00;6.40;;;;;;;14.44;100.00;99600.95;104989;1271;62179;-78
2022/07/09 03:13:01;;;;;;;9.90;5.40;;;;;;;14.42;100.00;99595.86;105237;1271;61351;-76
2022/07/09 03:15:27;;;;;;;9.40;6.40;;;;;;;14.40;100.00;99593.73;105260;1271;61358;-75
2022/07/09 03:17:53;;;;;;;9.50;6.60;;;;;;;14.38;100.00;99596.34;105188;1271;61393;-76
2022/07/09 03:20:19;;;;;;;9.20;6.10;;;;;;;14.41;100.00;99595.39;105292;1271;61350;-78
2022/07/09 03:22:45;;;;;;;9.70;6.00;;;;;;;14.47;100.00;99597.79;105310;1271;61354;-77
2022/07/09 03:25:11;;;;;;;10.70;5.30;;;;;;;14.52;100.00;99595.38;105164;1271;61279;-78
2022/07/09 03:27:37;;;;;;;12.10;6.00;;;;;;;14.52;100.00;99601.77;105234;1271;61304;-76
2022/07/09 03:30:04;;;;;;;9.30;5.50;;;;;;;14.56;100.00;99596.85;105196;1270;61360;-77
2022/07/09 03:32:31;;;;;;;8.70;5.60;;;;;;;14.92;100.00;99596.30;104954;1271;61568;-75
2022/07/09 03:34:56;;;;;;;10.20;6.10;;;;;;;15.13;100.00;99594.89;105213;1271;61393;-76
2022/07/09 03:37:23;;;;;;;7.60;5.30;;;;;;;15.41;100.00;99589.36;105205;1271;61298;-76
2022/07/09 03:39:49;;;;;;;6.40;5.10;;;;;;;15.43;100.00;99591.15;105217;1271;61367;-77
2022/07/09 03:42:15;;;;;;;10.60;5.40;;;;;;;15.39;100.00;99589.52;105202;1271;61375;-77
2022/07/09 03:44:41;;;;;;;10.20;6.00;;;;;;;15.43;100.00;99589.74;105205;1271;61367;-77
2022/07/09 03:47:08;;;;;;;8.50;5.00;;;;;;;15.51;100.00;99588.40;105203;1269;61279;-77
2022/07/09 03:49:34;;;;;;;7.60;5.20;;;;;;;15.64;100.00;99587.06;105169;1271;61390;-77
2022/07/09 03:52:00;;;;;;;6.90;5.00;;;;;;;16.16;100.00;99589.52;105204;1271;61199;-77
2022/07/09 03:54:26;;;;;;;9.80;5.30;;;;;;;16.56;100.00;99592.37;105224;1271;61341;-76
2022/07/09 03:56:52;;;;;;;10.50;4.80;;;;;;;16.21;100.00;99592.05;105227;1271;61304;-76
2022/07/09 03:59:19;;;;;;;10.50;6.40;;;;;;;16.03;100.00;99592.91;105198;1271;61150;-77
2022/07/09 04:01:45;;;;;;;12.40;7.60;;;;;;;15.91;100.00;99593.52;105170;1271;61374;-76
2022/07/09 04:04:11;;;;;;;17.70;8.50;;;;;;;15.74;100.00;99588.39;105221;1270;61269;-76
2022/07/09 04:06:37;;;;;;;16.30;8.90;;;;;;;15.63;100.00;99589.96;105177;1271;61353;-77
2022/07/09 04:09:06;;;;;;;11.50;7.60;;;;;;;15.58;100.00;99588.95;105209;1271;70018;-77
2022/07/09 04:11:33;;;;;;;14.70;7.90;;;;;;;15.57;100.00;99588.60;105156;1271;61333;-77
2022/07/09 04:14:01;;;;;;;11.60;6.30;;;;;;;15.62;100.00;99589.85;105252;1271;62641;-78
2022/07/09 04:16:28;;;;;;;13.50;6.10;;;;;;;15.69;100.00;99586.64;105462;1271;75379;-76
2022/07/09 04:18:54;;;;;;;9.80;5.20;;;;;;;15.80;100.00;99585.95;106005;1271;69353;-75
2022/07/09 04:21:21;;;;;;;10.80;5.10;;;;;;;15.97;100.00;99586.59;106011;1271;73546;-77
2022/07/09 04:23:49;;;;;;;9.00;5.10;;;;;;;15.97;100.00;99586.75;105717;1271;61720;-77
2022/07/09 04:26:16;;;;;;;11.20;5.20;;;;;;;16.02;100.00;99582.27;105714;1269;61332;-76
2022/07/09 04:28:42;;;;;;;8.90;4.50;;;;;;;16.16;100.00;99581.85;105792;1271;72468;-77
2022/07/09 04:31:08;;;;;;;9.20;4.60;;;;;;;16.33;100.00;99577.41;105264;1271;61378;-78
2022/07/09 04:33:35;;;;;;;10.00;4.00;;;;;;;16.93;100.00;99577.50;105204;1271;61309;-77
2022/07/09 04:36:01;;;;;;;6.00;4.10;;;;;;;16.94;100.00;99576.52;105156;1271;61274;-77
2022/07/09 04:38:26;;;;;;;7.40;4.20;;;;;;;16.86;100.00;99579.94;105211;1271;61629;-78
2022/07/09 04:40:54;;;;;;;6.50;3.90;;;;;;;16.74;100.00;99586.23;105216;1271;61301;-78
2022/07/09 04:43:21;;;;;;;7.70;4.00;;;;;;;16.68;100.00;99584.08;105179;1271;61256;-77
2022/07/09 04:45:47;;;;;;;9.00;4.30;;;;;;;16.65;100.00;99583.57;105346;1271;61356;-78
2022/07/09 04:48:13;;;;;;;10.60;4.30;;;;;;;16.62;100.00;99584.73;105047;1271;61320;-76
2022/07/09 04:50:40;;;;;;;6.40;4.00;;;;;;;16.52;100.00;99588.48;105314;1271;61292;-82
2022/07/09 04:53:05;;;;;;;9.90;4.10;;;;;;;16.43;100.00;99590.56;105172;1269;61269;-75
2022/07/09 04:55:31;;;;;;;7.50;3.70;;;;;;;16.27;100.00;99594.39;105195;1271;61298;-76
2022/07/09 04:57:58;;;;;;;9.30;3.90;;;;;;;16.01;100.00;99596.67;105181;1271;61259;-77
2022/07/09 05:00:24;;;;;;;8.70;3.90;;;;;;;15.83;100.00;99597.75;105178;1271;61371;-76
2022/07/09 05:02:50;;;;;;;7.40;3.60;;;;;;;15.72;100.00;99603.29;105244;1270;61368;-74
2022/07/09 05:05:16;;;;;;;7.10;3.50;;;;;;;15.60;100.00;99602.21;105162;1271;70245;-74
2022/07/09 05:07:42;;;;;;;7.50;3.60;;;;;;;15.55;100.00;99600.98;105215;1271;61329;-73
2022/07/09 05:10:08;;;;;;;4.50;3.40;;;;;;;15.51;100.00;99597.15;105180;1271;61250;-75
2022/07/09 05:12:36;;;;;;;4.00;3.60;;;;;;;15.51;100.00;99596.61;105153;1271;61301;-74
2022/07/09 05:15:02;;;;;;;5.00;3.70;;;;;;;15.53;100.00;99599.17;105236;1270;61381;-75
2022/07/09 05:17:34;;;;;;;6.20;3.70;;;;;;;15.53;100.00;99602.59;105065;1271;69819;-76
2022/07/09 05:20:00;;;;;;;5.20;4.30;;;;;;;15.51;100.00;99603.25;105263;1271;73320;-74
2022/07/09 05:22:26;;;;;;;8.10;4.10;;;;;;;15.49;100.00;99602.34;105199;1271;61395;-75
2022/07/09 05:24:53;;;;;;;5.70;4.20;;;;;;;15.53;100.00;99594.30;105149;1271;61277;-75
2022/07/09 05:27:19;;;;;;;8.00;6.30;;;;;;;15.70;100.00;99592.14;104995;1271;61307;-75
2022/07/09 05:29:45;;;;;;;18.80;12.10;;;;;;;15.87;100.00;99593.45;105169;1271;61390;-74
2022/07/09 05:32:11;;;;;;;15.20;12.20;;;;;;;16.07;100.00;99593.19;105020;1271;61341;-75
2022/07/09 05:34:37;;;;;;;12.80;9.50;;;;;;;16.23;100.00;99588.59;104944;1271;61352;-76
2022/07/09 05:37:03;;;;;;;12.60;8.10;;;;;;;16.37;100.00;99590.16;105203;1271;61387;-75
2022/07/09 05:39:29;;;;;;;11.00;7.00;;;;;;;16.51;100.00;99592.48;105156;1269;61364;-75
2022/07/09 05:41:55;;;;;;;8.80;5.80;;;;;;;16.68;100.00;99590.90;105200;1270;61333;-75
2022/07/09 05:44:21;;;;;;;11.30;6.20;;;;;;;16.87;100.00;99591.70;105201;1271;61428;-75
2022/07/09 05:46:47;;;;;;;8.00;4.60;;;;;;;17.07;100.00;99581.16;105187;1271;61276;-75
2022/07/09 05:49:13;;;;;;;6.60;3.90;;;;;;;17.31;100.00;99575.01;105160;1271;61301;-75
2022/07/09 05:51:39;;;;;;;7.00;3.70;;;;;;;17.52;100.00;99574.13;105050;1271;61543;-75
2022/07/09 05:54:05;;;;;;;4.90;4.30;;;;;;;17.73;100.00;99575.48;105193;1271;61394;-76
2022/07/09 05:56:31;;;;;;;7.30;4.60;;;;;;;17.94;100.00;99572.09;104964;1271;61290;-76
2022/07/09 05:58:57;;;;;;;4.40;3.90;;;;;;;18.10;100.00;99574.84;104988;1271;61342;-76
2022/07/09 06:01:23;;;;;;;7.00;4.70;;;;;;;18.32;100.00;99569.73;105207;1271;61373;-75
2022/07/09 06:03:52;;;;;;;7.60;4.70;;;;;;;18.68;100.00;99571.23;105183;1270;61279;-76
2022/07/09 06:06:18;;;;;;;6.20;4.00;;;;;;;18.93;100.00;99566.77;105171;1271;61355;-78
2022/07/09 06:08:44;;;;;;;5.90;3.70;;;;;;;19.15;100.00;99566.20;105152;1271;61388;-77
2022/07/09 06:11:11;;;;;;;5.40;3.40;;;;;;;19.36;100.00;99566.55;105187;1271;61373;-75
2022/07/09 06:13:37;;;;;;;4.80;2.70;;;;;;;19.56;100.00;99567.75;105199;1271;61342;-75
2022/07/09 06:16:03;;;;;;;4.00;2.60;;;;;;;19.93;100.00;99557.36;105182;1271;61343;-75
2022/07/09 06:18:30;;;;;;;4.00;2.70;;;;;;;20.42;100.00;99554.98;105181;1271;61409;-75
2022/07/09 06:20:55;;;;;;;6.60;3.40;;;;;;;20.77;100.00;99552.85;105168;1271;61494;-75
2022/07/09 06:23:21;;;;;;;5.30;2.90;;;;;;;20.97;100.00;99554.66;105249;1271;61390;-75
2022/07/09 06:25:47;;;;;;;5.60;2.90;;;;;;;21.17;100.00;99558.05;105199;1271;70333;-75
2022/07/09 06:28:14;;;;;;;4.90;3.50;;;;;;;21.21;100.00;99557.91;105156;1270;61262;-75
2022/07/09 06:30:40;;;;;;;6.70;2.90;;;;;;;21.17;100.00;99558.42;105166;1271;61924;-75
2022/07/09 06:33:06;;;;;;;5.10;3.10;;;;;;;21.02;100.00;99560.11;105183;1270;61411;-75
2022/07/09 06:35:32;;;;;;;4.00;2.40;;;;;;;20.80;100.00;99561.81;105220;1270;61349;-76
2022/07/09 06:38:00;;;;;;;4.90;2.70;;;;;;;20.75;100.00;99559.77;105212;1271;61261;-75
2022/07/09 06:40:26;;;;;;;3.90;2.90;;;;;;;20.72;100.00;99550.98;105224;1271;74849;-76
2022/07/09 06:42:53;;;;;;;5.70;2.90;;;;;;;20.58;100.00;99552.75;105132;1271;61280;-76
2022/07/09 06:45:19;;;;;;;4.80;2.90;;;;;;;20.33;100.00;99547.45;105163;1271;61492;-75
2022/07/09 06:47:45;;;;;;;4.20;2.80;;;;;;;20.07;100.00;99550.70;105209;1271;61285;-75
2022/07/09 06:50:11;;;;;;;4.10;2.80;;;;;;;19.88;100.00;99547.49;105189;1271;61337;-75
2022/07/09 06:52:37;;;;;;;3.10;2.70;;;;;;;19.68;100.00;99553.77;105196;1271;61386;-75
2022/07/09 06:55:03;;;;;;;4.20;2.80;;;;;;;19.55;100.00;99552.65;105225;1270;61378;-75
2022/07/09 06:57:31;;;;;;;5.60;3.50;;;;;;;19.64;100.00;99550.52;105166;1271;61287;-75
2022/07/09 06:59:57;;;;;;;3.40;2.30;;;;;;;20.27;100.00;99550.44;105214;1269;61356;-75
2022/07/09 07:02:23;;;;;;;5.30;2.80;;;;;;;20.98;100.00;99544.63;105203;1271;61275;-75
2022/07/09 07:04:49;;;;;;;4.40;2.40;;;;;;;21.16;100.00;99539.67;105188;1271;61428;-76
2022/07/09 07:07:16;;;;;;;3.70;2.60;;;;;;;21.52;100.00;99535.27;104915;1272;61538;-75
2022/07/09 07:09:42;;;;;;;5.90;3.70;;;;;;;22.12;100.00;99530.79;104995;1271;61315;-76
2022/07/09 07:12:08;;;;;;;3.70;2.70;;;;;;;22.65;100.00;99529.09;105187;1271;61239;-75
2022/07/09 07:14:33;;;;;;;3.80;2.40;;;;;;;23.05;100.00;99522.86;105209;1271;61371;-75
2022/07/09 07:16:59;;;;;;;5.80;3.50;;;;;;;23.24;100.00;99521.68;105220;1271;61164;-76
2022/07/09 07:19:25;;;;;;;3.60;2.00;;;;;;;23.57;100.00;99520.92;105236;1271;61374;-76
2022/07/09 07:21:52;;;;;;;3.20;2.30;;;;;;;23.86;100.00;99516.52;105172;1270;61409;-76
2022/07/09 07:24:18;;;;;;;3.60;2.80;;;;;;;24.11;100.00;99522.71;105187;1271;61477;-76
2022/07/09 07:26:43;;;;;;;5.80;2.40;;;;;;;23.88;100.00;99522.83;105188;1270;61306;-74
2022/07/09 07:29:10;;;;;;;4.50;2.20;;;;;;;23.84;100.00;99522.98;105167;1271;61380;-75
2022/07/09 07:31:36;;;;;;;3.10;1.60;;;;;;;23.79;100.00;99526.58;105207;1271;61311;-75
2022/07/09 07:34:01;;;;;;;3.10;1.80;;;;;;;23.68;100.00;99521.88;105214;1270;61260;-76
2022/07/09 07:36:29;;;;;;;5.80;2.00;;;;;;;23.70;100.00;99523.08;105235;1271;61345;-75
2022/07/09 07:38:55;;;;;;;4.00;1.80;;;;;;;23.74;100.00;99519.23;105266;1271;61180;-75
2022/07/09 07:41:21;;;;;;;2.80;1.40;;;;;;;23.59;100.00;99524.89;105172;1271;61243;-75
2022/07/09 07:43:48;;;;;;;4.40;1.60;;;;;;;23.40;100.00;99522.64;105202;1271;61297;-75
2022/07/09 07:46:14;;;;;;;3.40;1.60;;;;;;;23.31;100.00;99517.11;104972;1271;61396;-75
2022/07/09 07:48:42;;;;;;;3.70;1.60;;;;;;;23.51;100.00;99515.08;105171;1271;61574;-75
2022/07/09 07:51:10;;;;;;;4.50;1.50;;;;;;;23.63;100.00;99511.11;105179;1270;61137;-76
2022/07/09 07:53:36;;;;;;;4.40;1.90;;;;;;;23.50;100.00;99511.67;105207;1271;61946;-77
2022/07/09 07:56:07;;;;;;;5.10;2.10;;;;;;;23.20;100.00;99508.48;105182;1270;61259;-76
2022/07/09 07:58:33;;;;;;;3.40;2.00;;;;;;;22.89;100.00;99511.80;105019;1271;70208;-76
2022/07/09 08:01:00;;;;;;;4.50;2.20;;;;;;;22.61;100.00;99511.94;105157;1271;61269;-75
2022/07/09 08:03:26;;;;;;;2.30;1.60;;;;;;;22.33;100.00;99512.42;105172;1270;61283;-76
2022/07/09 08:05:52;;;;;;;4.40;1.60;;;;;;;22.11;100.00;99510.27;104937;1272;61435;-76
2022/07/09 08:08:18;;;;;;;3.60;1.90;;;;;;;22.04;100.00;99510.64;105182;1271;61445;-74
2022/07/09 08:10:45;;;;;;;4.60;2.00;;;;;;;22.23;100.00;99509.66;105207;1271;61364;-75
2022/07/09 08:13:12;;;;;;;3.70;1.90;;;;;;;22.47;100.00;99503.28;105203;1271;61314;-75
2022/07/09 08:15:38;;;;;;;2.70;1.60;;;;;;;22.65;100.00;99507.13;105204;1270;61382;-76
2022/07/09 08:18:05;;;;;;;3.20;1.50;;;;;;;22.97;100.00;99501.19;105213;1271;61356;-76
2022/07/09 08:20:31;;;;;;;3.80;1.50;;;;;;;23.11;100.00;99502.86;105225;1271;61359;-75
2022/07/09 08:22:58;;;;;;;3.20;1.70;;;;;;;22.89;100.00;99500.89;105202;1271;62735;-76
2022/07/09 08:25:24;;;;;;;2.40;1.70;;;;;;;22.59;100.00;99502.94;105187;1271;61255;-76
2022/07/09 08:27:50;;;;;;;1.90;1.40;;;;;;;22.37;100.00;99500.49;105178;1269;61373;-76
2022/07/09 08:30:17;;;;;;;3.60;1.60;;;;;;;22.16;100.00;99502.30;105285;1271;61138;-78
2022/07/09 08:32:44;;;;;;;4.00;1.70;;;;;;;21.83;100.00;99504.16;105718;1271;61498;-78
2022/07/09 08:35:11;;;;;;;3.90;2.20;;;;;;;21.51;100.00;99499.21;105303;1271;61279;-78
2022/07/09 08:37:37;;;;;;;3.30;1.50;;;;;;;21.28;100.00;99499.74;105514;1271;71262;-80
2022/07/09 08:40:05;;;;;;;2.60;1.90;;;;;;;21.22;100.00;99496.79;105596;1271;61401;-78
2022/07/09 08:42:31;;;;;;;4.30;2.80;;;;;;;21.35;100.00;99490.25;105163;1271;61327;-81
2022/07/09 08:44:58;;;;;;;6.00;2.90;;;;;;;21.61;100.00;99492.93;105849;1271;61287;-77
2022/07/09 08:47:25;;;;;;;2.80;2.60;;;;;;;21.98;100.00;99493.73;105424;1271;69435;-81
2022/07/09 08:49:56;;;;;;;6.90;2.90;;;;;;;22.39;100.00;99487.14;105300;1271;74874;-79
2022/07/09 08:52:25;;;;;;;5.00;3.80;;;;;;;22.78;100.00;99484.79;105326;1271;61170;-77
2022/07/09 08:54:55;;;;;;;6.00;2.90;;;;;;;23.02;100.00;99488.23;105237;1271;61150;-79
2022/07/09 08:57:20;;;;;;;4.00;2.90;;;;;;;23.29;100.00;99488.52;105282;1271;74692;-81
2022/07/09 08:59:47;;;;;;;4.30;2.00;;;;;;;23.44;100.00;99486.80;105322;1270;61358;-80
2022/07/09 09:02:20;;;;;;;3.90;2.50;;;;;;;23.64;100.00;99482.87;105313;1270;61376;-76
2022/07/09 09:04:46;;;;;;;4.30;2.30;;;;;;;23.87;100.00;99479.55;104941;1271;61431;-77
2022/07/09 09:07:13;;;;;;;5.40;1.80;;;;;;;24.22;100.00;99471.92;105372;1270;61289;-81
2022/07/09 09:09:39;;;;;;;2.60;1.50;;;;;;;24.54;100.00;99468.38;105412;1271;74662;-79
2022/07/09 09:12:05;;;;;;;3.40;1.60;;;;;;;24.68;100.00;99463.20;107359;1271;61381;-81
2022/07/09 09:14:32;;;;;;;3.10;1.50;;;;;;;24.68;100.00;99464.15;107803;1270;62835;-78
2022/07/09 09:17:06;;;;;;;3.10;1.80;;;;;;;24.53;100.00;99460.52;107181;1269;61230;-79
2022/07/09 09:19:33;;;;;;;3.50;1.40;;;;;;;24.01;100.00;99460.88;105422;1271;61282;-81
2022/07/09 09:21:58;;;;;;;2.70;2.10;;;;;;;23.83;100.00;99460.24;105451;1271;75175;-72
2022/07/09 09:24:26;;;;;;;2.70;1.40;;;;;;;23.87;100.00;99455.46;105218;1271;61246;-73
2022/07/09 09:26:57;;;;;;;3.70;1.70;;;;;;;23.84;100.00;99453.74;105352;1270;74219;-73
2022/07/09 09:29:23;;;;;;;2.60;1.50;;;;;;;23.68;100.00;99455.79;105196;1271;61255;-72
2022/07/09 09:31:50;;;;;;;3.20;1.60;;;;;;;23.48;100.00;99454.08;105201;1271;61348;-72
2022/07/09 09:34:17;;;;;;;2.00;1.60;;;;;;;23.24;100.00;99456.20;105024;1271;73476;-71
2022/07/09 09:36:44;;;;;;;2.60;1.50;;;;;;;23.14;100.00;99454.13;105242;1271;70160;-72
2022/07/09 09:39:29;;;;;;;3.00;1.70;;;;;;;23.50;100.00;99445.36;105223;1271;73298;-73
2022/07/09 09:41:56;;;;;;;1.60;1.40;;;;;;;24.03;100.00;99444.02;105268;1271;61237;-73
2022/07/09 09:44:28;;;;;;;2.20;1.40;;;;;;;24.58;100.00;99439.17;104950;1271;335660;-72
2022/07/09 09:46:56;;;;;;;4.00;2.00;;;;;;;24.97;100.00;99432.66;105325;1270;75365;-71
2022/07/09 09:49:22;;;;;;;4.70;1.90;;;;;;;25.29;100.00;99430.36;104978;1271;69638;-73
2022/07/09 09:52:03;;;;;;;3.10;2.20;;;;;;;25.49;100.00;99427.67;105217;1270;61168;-73
2022/07/09 09:54:35;;;;;;;2.70;1.60;;;;;;;25.86;100.00;99423.77;105272;1271;61284;-72
2022/07/09 09:57:09;;;;;;;2.70;2.30;;;;;;;25.95;100.00;99419.19;105273;1269;62228;-73
2022/07/09 09:59:41;;;;;;;3.50;2.40;;;;;;;25.77;100.00;99418.83;105027;1271;74814;-74
2022/07/09 10:02:09;;;;;;;4.00;1.90;;;;;;;25.62;99.92;99416.65;105296;1269;69220;-73
2022/07/09 10:04:41;;;;;;;2.60;1.70;;;;;;;25.72;99.90;99414.85;105218;1271;73541;-73
2022/07/09 10:07:08;;;;;;;2.60;1.80;;;;;;;25.95;99.61;99407.52;105205;1271;61433;-72
2022/07/09 10:09:35;;;;;;;3.60;2.40;;;;;;;25.89;99.72;99406.59;105222;1271;61272;-71
2022/07/09 10:12:01;;;;;;;3.40;2.30;;;;;;;25.73;99.23;99404.52;105225;1271;61282;-71
2022/07/09 10:14:27;;;;;;;1.90;1.60;;;;;;;25.53;98.46;99399.59;105186;1270;61355;-72
2022/07/09 10:16:53;;;;;;;3.60;1.80;;;;;;;25.42;98.52;99398.16;105211;1271;61377;-72
2022/07/09 10:19:28;;;;;;;4.70;1.80;;;;;;;25.46;98.38;99392.61;104939;1271;61304;-72
2022/07/09 10:21:56;;;;;;;3.90;1.80;;;;;;;25.51;96.21;99389.20;105224;1271;61838;-72
2022/07/09 10:24:28;;;;;;;35.30;30.60;;;;;;;25.51;95.14;99386.52;105042;1271;76477;-72
2022/07/09 10:27:08;;;;;;;11.20;7.40;;;;;;;25.69;95.94;99380.45;104969;1271;68162;-72
2022/07/09 10:29:36;;;;;;;3.50;3.10;;;;;;;26.19;95.13;99377.85;105306;1271;73203;-72
2022/07/09 10:32:04;;;;;;;5.80;3.60;;;;;;;26.50;93.70;99369.05;105198;1271;61469;-73
2022/07/09 10:34:48;;;;;;;3.90;3.30;;;;;;;26.38;92.14;99361.61;105010;1272;62291;-72
2022/07/09 10:37:14;;;;;;;3.70;2.60;;;;;;;25.84;91.06;99366.75;105197;1268;76923;-72
2022/07/09 10:39:40;;;;;;;4.80;2.60;;;;;;;25.21;91.15;99368.13;104989;1269;61984;-74
2022/07/09 10:42:21;;;;;;;4.10;2.30;;;;;;;24.64;90.61;99366.35;104987;1268;61559;-73
2022/07/09 10:44:49;;;;;;;3.80;2.10;;;;;;;24.10;92.17;99367.41;105371;1268;61394;-72
2022/07/09 10:47:16;;;;;;;3.60;1.90;;;;;;;23.79;92.19;99371.48;105230;1268;61454;-72
2022/07/09 10:49:42;;;;;;;4.30;1.80;;;;;;;23.63;93.38;99368.92;105270;1268;75498;-73
2022/07/09 10:52:09;;;;;;;4.80;1.70;;;;;;;23.66;92.98;99367.67;105034;1268;61480;-73
2022/07/09 10:54:48;;;;;;;2.70;1.70;;;;;;;23.76;93.91;99359.63;105238;1268;73531;-72
2022/07/09 10:57:14;;;;;;;3.50;2.30;;;;;;;24.03;94.05;99352.70;104993;1268;61387;-72
2022/07/09 10:59:47;;;;;;;3.70;1.50;;;;;;;24.47;93.96;99347.82;105263;1268;61324;-74
2022/07/09 11:02:22;;;;;;;2.80;1.70;;;;;;;24.84;92.24;99341.08;105246;1268;76631;-73
2022/07/09 11:04:52;;;;;;;3.30;1.40;;;;;;;25.11;92.65;99341.38;105251;1268;69405;-71
2022/07/09 11:07:25;;;;;;;2.10;1.50;;;;;;;25.30;91.69;99341.44;105239;1268;72767;-72
2022/07/09 11:09:52;;;;;;;2.10;1.40;;;;;;;25.29;90.55;99337.77;105265;1268;61252;-72
2022/07/09 11:12:22;;;;;;;3.30;1.80;;;;;;;25.42;90.07;99338.94;105317;1268;61195;-71
2022/07/09 11:14:50;;;;;;;2.90;1.50;;;;;;;25.66;89.50;99340.85;105255;1268;76344;-71
2022/07/09 11:17:17;;;;;;;2.60;1.00;;;;;;;25.54;88.02;99334.07;105258;1268;69410;-72